Time;durP1;ratioP1;P1;durP2;ratioP2;P2;SDS_P1;SDS_P2;PMS_P1;PMS_P2;Temp;Humidity;BMP_temperature;BMP_pressure;BME280_temperature;BME280_humidity;BME280_pressure;Samples;Min_cycle;Max_cycle;Signal;HPM_P1;HPM_P2
2023/10/09 00:02:25;;;;;;;10.60;1.50;;;14.00;94.40;;;;;;25584742;23;20448;-58
2023/10/09 00:12:28;;;;;;;10.98;1.63;;;14.10;94.20;;;;;;25584872;23;20063;-58
2023/10/09 00:22:30;;;;;;;9.35;1.50;;;14.10;93.70;;;;;;25587471;23;20009;-59
2023/10/09 00:32:37;;;;;;;7.07;1.60;;;14.40;94.10;;;;;;25593189;23;20012;-59
2023/10/09 00:42:39;;;;;;;14.43;1.60;;;13.90;94.70;;;;;;25632198;23;20011;-58
2023/10/09 00:52:50;;;;;;;11.25;1.30;;;13.80;94.80;;;;;;25590771;23;20013;-59
2023/10/09 01:03:01;;;;;;;15.02;1.63;;;13.70;95.30;;;;;;25631503;23;20009;-58
2023/10/09 01:13:03;;;;;;;15.32;1.45;;;13.70;94.80;;;;;;25604717;23;20064;-59
2023/10/09 01:23:07;;;;;;;11.98;1.65;;;13.60;95.00;;;;;;25589855;23;20008;-59
2023/10/09 01:33:22;;;;;;;7.43;1.50;;;13.50;95.70;;;;;;25588660;23;20056;-51
2023/10/09 01:43:24;;;;;;;14.30;1.40;;;13.60;94.30;;;;;;25629853;23;20005;-54
2023/10/09 01:53:29;;;;;;;9.57;1.42;;;14.30;93.40;;;;;;25588470;23;20067;-49
2023/10/09 02:03:36;;;;;;;9.75;2.05;;;14.20;94.10;;;;;;25629117;23;20009;-58
2023/10/09 02:13:41;;;;;;;14.95;1.60;;;13.90;94.10;;;;;;25628821;23;20005;-51
2023/10/09 02:23:49;;;;;;;9.27;1.73;;;13.70;95.30;;;;;;25587160;23;20009;-58
2023/10/09 02:33:55;;;;;;;9.68;1.70;;;13.50;95.10;;;;;;25559034;23;20440;-51
2023/10/09 02:44:10;;;;;;;9.10;1.80;;;13.60;94.40;;;;;;25585708;23;20009;-58
2023/10/09 02:54:18;;;;;;;13.07;1.85;;;13.70;94.10;;;;;;25583105;23;20021;-52
2023/10/09 03:04:23;;;;;;;11.38;1.65;;;13.80;94.30;;;;;;25628509;23;20024;-53
2023/10/09 03:14:26;;;;;;;13.40;1.73;;;14.00;93.90;;;;;;25585549;23;20013;-48
2023/10/09 03:24:28;;;;;;;20.05;2.10;;;14.40;92.60;;;;;;25585315;23;20112;-52
2023/10/09 03:34:30;;;;;;;10.95;1.50;;;14.80;91.40;;;;;;25584739;23;20001;-51
2023/10/09 03:44:34;;;;;;;10.35;2.25;;;14.20;93.90;;;;;;25584158;23;20005;-51
2023/10/09 03:54:38;;;;;;;15.65;2.05;;;13.60;94.90;;;;;;25585420;23;20039;-52
2023/10/09 04:04:46;;;;;;;12.48;1.98;;;13.50;95.70;;;;;;25591133;23;20076;-52
2023/10/09 04:15:01;;;;;;;11.13;1.83;;;13.40;94.90;;;;;;25632911;23;20068;-58
2023/10/09 04:25:07;;;;;;;14.60;1.83;;;13.30;95.80;;;;;;25632536;23;20008;-51
2023/10/09 04:35:26;;;;;;;14.70;1.77;;;13.10;95.90;;;;;;25564197;23;20059;-51
2023/10/09 04:55:55;;;;;;;13.73;1.52;;;13.10;95.30;;;;;;25609137;23;20017;-52
2023/10/09 05:05:59;;;;;;;12.55;2.42;;;13.10;95.80;;;;;;25630973;23;20028;-52
2023/10/09 05:16:02;;;;;;;13.13;1.80;;;13.20;94.70;;;;;;25590558;23;20005;-57
2023/10/09 05:26:26;;;;;;;15.55;2.38;;;13.20;94.80;;;;;;25588983;23;20001;-58
2023/10/09 05:46:35;;;;;;;11.32;2.00;;;13.20;95.00;;;;;;25588177;23;20020;-58
2023/10/09 06:06:58;;;;;;;12.65;1.90;;;13.90;93.10;;;;;;25628493;23;20059;-53
2023/10/09 06:17:00;;;;;;;11.32;1.95;;;14.30;94.60;;;;;;25586497;23;20016;-58
2023/10/09 06:27:14;;;;;;;17.98;1.90;;;14.40;94.80;;;;;;25586731;23;20001;-58
2023/10/09 06:47:26;;;;;;;11.00;2.08;;;15.00;95.00;;;;;;25626640;23;20211;-58
2023/10/09 06:57:48;;;;;;;12.02;1.83;;;15.00;95.20;;;;;;25585640;23;20098;-59
2023/10/09 07:07:54;;;;;;;13.90;2.00;;;15.40;94.90;;;;;;25626110;23;20005;-59
2023/10/09 07:18:18;;;;;;;17.80;2.60;;;16.10;92.30;;;;;;25598938;23;20005;-60
2023/10/09 07:28:18;;;;;;;16.00;2.40;;;17.00;91.00;;;;;;25584791;23;20448;-60
2023/10/09 07:38:23;;;;;;;14.23;2.63;;;18.70;88.00;;;;;;25592742;23;20008;-50
2023/10/09 07:48:38;;;;;;;20.90;2.72;;;20.00;85.20;;;;;;25592340;23;20333;-51
2023/10/09 07:58:46;;;;;;;12.30;2.53;;;20.70;83.80;;;;;;25599248;23;20012;-61
2023/10/09 08:19:32;;;;;;;11.80;2.63;;;22.70;88.50;;;;;;25633015;23;20067;-63
2023/10/09 08:29:34;;;;;;;13.80;2.42;;;23.70;83.70;;;;;;25632605;23;20005;-51
2023/10/09 08:39:36;;;;;;;15.05;2.55;;;24.30;81.90;;;;;;25591830;23;20009;-61
2023/10/09 08:49:38;;;;;;;14.57;2.67;;;24.80;83.20;;;;;;25590470;23;20005;-62
2023/10/09 08:59:44;;;;;;;13.15;2.20;;;25.10;80.10;;;;;;25589960;23;20017;-63
2023/10/09 09:10:04;;;;;;;14.00;2.33;;;25.20;78.30;;;;;;25588607;23;20012;-63
2023/10/09 09:20:25;;;;;;;16.85;2.72;;;25.20;75.80;;;;;;25630659;23;20001;-63
2023/10/09 09:30:35;;;;;;;15.75;3.05;;;25.60;79.10;;;;;;25588618;23;20001;-62
2023/10/09 09:40:41;;;;;;;16.70;2.67;;;26.10;76.90;;;;;;25631040;23;20020;-62
2023/10/09 09:50:43;;;;;;;16.77;2.70;;;26.60;76.60;;;;;;25628242;23;20009;-62
2023/10/09 10:00:52;;;;;;;19.85;3.13;;;26.80;75.00;;;;;;25627942;23;20397;-62
2023/10/09 10:10:57;;;;;;;16.45;3.92;;;26.80;74.00;;;;;;25628440;23;20060;-62
2023/10/09 10:32:00;;;;;;;14.88;3.55;;;26.60;71.80;;;;;;25627857;23;20005;-62
2023/10/09 10:42:04;;;;;;;16.33;3.40;;;27.20;75.50;;;;;;25627319;23;20001;-62
2023/10/09 10:52:16;;;;;;;16.65;3.22;;;27.50;78.10;;;;;;25586056;23;20437;-63
2023/10/09 11:02:37;;;;;;;12.35;2.70;;;26.20;77.80;;;;;;25626617;23;20060;-63
2023/10/09 11:12:45;;;;;;;14.07;2.72;;;24.50;74.20;;;;;;25626371;23;20001;-62
2023/10/09 11:33:21;;;;;;;13.55;2.85;;;26.70;75.50;;;;;;25089009;23;20062;-62
2023/10/09 11:43:50;;;;;;;15.10;3.13;;;;;;;;;;25087879;23;20439;-63
2023/10/09 11:53:49;;;;;;;13.18;2.75;;;;;;;;;;25126326;23;20429;-65
2023/10/09 12:03:52;;;;;;;17.85;2.90;;;28.10;84.40;;;;;;25325662;23;20025;-64
2023/10/09 12:13:56;;;;;;;16.75;3.28;;;25.20;76.80;;;;;;25461171;23;20014;-63
2023/10/09 12:23:58;;;;;;;16.27;3.10;;;25.40;79.80;;;;;;25467655;23;20020;-63
2023/10/09 12:34:00;;;;;;;14.70;2.70;;;26.80;77.40;;;;;;25468198;23;20009;-63
2023/10/09 12:44:02;;;;;;;10.68;2.72;;;27.30;74.90;;;;;;25467475;23;20005;-65
2023/10/09 12:54:04;;;;;;;17.17;3.55;;;27.30;78.70;;;;;;25511362;23;20448;-52
2023/10/09 13:04:11;;;;;;;14.30;2.75;;;27.10;81.00;;;;;;25590216;23;20017;-64
2023/10/09 13:14:21;;;;;;;14.07;2.83;;;27.10;80.10;;;;;;25631345;23;20009;-64
2023/10/09 13:24:29;;;;;;;14.55;2.92;;;27.10;78.90;;;;;;25630447;23;20059;-64
2023/10/09 13:34:33;;;;;;;10.93;3.05;;;26.70;77.10;;;;;;25629982;23;20009;-63
2023/10/09 13:44:36;;;;;;;14.95;2.80;;;26.10;77.80;;;;;;25587893;23;20072;-63
2023/10/09 14:04:39;;;;;;;15.18;2.92;;;24.60;79.00;;;;;;25587497;23;20005;-62
2023/10/09 14:14:47;;;;;;;15.88;3.00;;;23.80;81.10;;;;;;25587495;23;20005;-62
2023/10/09 14:24:55;;;;;;;16.07;3.00;;;23.20;79.90;;;;;;25627141;23;20071;-62
2023/10/09 14:35:02;;;;;;;16.33;3.00;;;22.80;83.30;;;;;;25627651;23;20001;-62
2023/10/09 14:45:08;;;;;;;18.30;2.45;;;22.60;84.90;;;;;;25584192;23;20063;-62
2023/10/09 14:55:10;;;;;;;12.52;3.10;;;22.20;83.90;;;;;;25585956;23;20020;-62
2023/10/09 15:05:13;;;;;;;15.07;2.90;;;22.10;84.90;;;;;;25586823;23;20333;-62
2023/10/09 15:15:15;;;;;;;15.30;2.92;;;22.10;85.80;;;;;;25585232;23;20009;-61
2023/10/09 15:25:17;;;;;;;11.02;2.95;;;22.10;87.20;;;;;;25584187;23;20127;-61
2023/10/09 15:35:19;;;;;;;11.25;2.90;;;21.60;86.90;;;;;;25584946;23;20044;-62
2023/10/09 15:45:21;;;;;;;15.45;2.60;;;21.10;88.30;;;;;;25584710;23;20029;-62
2023/10/09 15:55:25;;;;;;;19.67;2.88;;;20.50;90.10;;;;;;25589591;23;20055;-61
2023/10/09 16:05:30;;;;;;;13.80;2.30;;;20.20;76.60;;;;;;25592184;23;20009;-61
2023/10/09 16:15:32;;;;;;;18.45;3.03;;;20.30;78.00;;;;;;25591813;23;20016;-52
2023/10/09 16:25:34;;;;;;;16.92;2.42;;;20.20;79.90;;;;;;25592617;23;20005;-61
2023/10/09 16:35:41;;;;;;;12.88;2.40;;;19.50;82.40;;;;;;25592850;23;20009;-61
2023/10/09 16:45:43;;;;;;;22.35;3.17;;;19.00;82.90;;;;;;25632687;23;20005;-61
2023/10/09 16:55:45;;;;;;;19.10;2.58;;;18.50;84.90;;;;;;25591608;23;20040;-61
2023/10/09 17:05:55;;;;;;;16.25;2.30;;;18.30;84.30;;;;;;25592106;23;20019;-53
2023/10/09 17:15:57;;;;;;;13.07;2.50;;;17.80;84.50;;;;;;25631422;23;20008;-60
2023/10/09 17:26:02;;;;;;;16.52;2.20;;;17.60;85.20;;;;;;25589952;23;20008;-60
2023/10/09 17:36:07;;;;;;;21.65;2.60;;;17.30;86.70;;;;;;25630426;23;20008;-60
2023/10/09 17:46:11;;;;;;;16.17;2.25;;;16.90;86.10;;;;;;25588726;23;20333;-60
2023/10/09 17:56:14;;;;;;;14.10;1.77;;;16.70;88.60;;;;;;25588399;23;20017;-60
2023/10/09 18:06:16;;;;;;;15.85;2.17;;;16.80;87.50;;;;;;25588245;23;20017;-53
2023/10/09 18:16:18;;;;;;;11.68;2.00;;;16.40;89.70;;;;;;25561249;23;20005;-52
2023/10/09 18:26:23;;;;;;;12.65;2.08;;;16.00;89.50;;;;;;25588078;23;20009;-60
2023/10/09 18:36:28;;;;;;;10.23;1.63;;;16.00;88.80;;;;;;25587256;23;20055;-54
2023/10/09 18:46:30;;;;;;;11.55;2.22;;;16.20;88.60;;;;;;25586543;23;20012;-51
2023/10/09 18:56:32;;;;;;;10.60;1.83;;;16.10;87.40;;;;;;25586857;23;20056;-60
2023/10/09 19:06:37;;;;;;;8.57;1.48;;;16.10;86.90;;;;;;25587475;23;20067;-60
2023/10/09 19:16:39;;;;;;;9.27;1.98;;;16.10;84.60;;;;;;25587032;23;20448;-60
2023/10/09 19:26:42;;;;;;;11.48;1.60;;;16.40;83.80;;;;;;25589453;23;20404;-53
2023/10/09 19:36:46;;;;;;;14.13;1.83;;;16.30;84.90;;;;;;25573472;23;20005;-60
2023/10/09 19:46:48;;;;;;;8.60;1.88;;;16.30;83.20;;;;;;25599016;23;20069;-54
2023/10/09 19:56:49;;;;;;;13.05;1.77;;;16.40;80.50;;;;;;25598131;23;20017;-61
2023/10/09 20:06:51;;;;;;;14.35;1.85;;;16.30;84.30;;;;;;25572834;23;20013;-60
2023/10/09 20:16:53;;;;;;;8.57;1.60;;;16.40;80.10;;;;;;25598597;23;20495;-55
2023/10/09 20:26:55;;;;;;;14.15;1.88;;;16.70;79.60;;;;;;25598342;23;20005;-51
2023/10/09 20:37:02;;;;;;;13.15;1.80;;;17.30;75.00;;;;;;25596354;23;20005;-54
2023/10/09 20:47:04;;;;;;;15.13;1.92;;;18.20;76.00;;;;;;25632495;23;20016;-60
2023/10/09 20:57:06;;;;;;;16.00;2.00;;;18.20;76.10;;;;;;25591213;23;20005;-60
2023/10/09 21:07:08;;;;;;;12.40;1.50;;;17.90;75.20;;;;;;25590897;23;20005;-60
2023/10/09 21:17:10;;;;;;;11.35;2.00;;;17.60;75.40;;;;;;25590566;23;20377;-60
2023/10/09 21:27:12;;;;;;;16.17;1.92;;;17.40;79.10;;;;;;25589893;23;20424;-60
2023/10/09 21:37:13;;;;;;;12.45;1.90;;;17.30;80.70;;;;;;25589647;23;20009;-51
2023/10/09 21:47:15;;;;;;;10.95;2.30;;;17.20;78.20;;;;;;25589107;23;20012;-60
2023/10/09 21:57:18;;;;;;;14.20;1.88;;;17.40;79.50;;;;;;25588346;23;20012;-60
2023/10/09 22:07:21;;;;;;;9.65;1.60;;;17.10;81.20;;;;;;25588459;23;20079;-60
2023/10/09 22:17:23;;;;;;;9.70;1.90;;;16.90;81.20;;;;;;25587919;23;20009;-60
2023/10/09 22:27:24;;;;;;;12.82;2.00;;;17.10;78.90;;;;;;25588635;23;20009;-55
2023/10/09 22:37:31;;;;;;;12.43;2.50;;;17.30;75.30;;;;;;25587108;23;20353;-60
2023/10/09 22:47:33;;;;;;;10.77;1.83;;;17.50;77.50;;;;;;25629078;23;20495;-50
2023/10/09 22:57:34;;;;;;;9.18;1.83;;;17.80;75.00;;;;;;25586937;23;20093;-52
2023/10/09 23:07:41;;;;;;;10.88;1.70;;;18.10;74.30;;;;;;25584701;23;20037;-61
2023/10/09 23:17:47;;;;;;;16.17;2.67;;;18.60;68.30;;;;;;25627216;23;20005;-54
2023/10/09 23:27:49;;;;;;;12.32;2.45;;;20.00;66.80;;;;;;25627615;23;20005;-60
2023/10/09 23:48:14;;;;;;;14.40;2.25;;;20.50;62.00;;;;;;25626624;23;20064;-60
2023/10/09 23:58:17;;;;;;;9.25;1.90;;;21.20;60.80;;;;;;25558109;23;20013;-60
